Kezdőlap
METAR-TAF:

METAR-TAF

Repülőterek :

Elkhart Municipal Airport

Elkhart, Indiana, Amerikai Egyesült Államok

földrajzi szélesség: 41-43N, földrajzi hosszúság: 086-00W, magasság: 237 m

Jelenlegi meteorológiai megfigyelések

A jelentés 25 perccel ezelõtt készült, 09:35 UTC
Szélcsend
Hőmérséklet 15°C
Páratartalom 100%
Légköri nyomás 1020 hPa
Látótávolság: 14.5 km
Derült ég

METAR: KEKM 210935Z AUTO 00000KT 9SM CLR 15/15 A3011 RMK AO2 T01500150 $

Idő: 06:00 (10:00 UTC)


TAF: hiányzik

Meteorológiai megfigyelések és előrejelzések több, mint 4000 repülőtéren (METAR és TAF jelentéseket).

A térképen piros és sárga pontok jelzik az elérhető meteorológiai állomásokat.

Mozgassa az egeret a pont fölött, hogy megjelenjen az állomás neve.

Azután kattintson az időjárási megfigyelések és előrejelzések megtekintéséhez.

A térkép megváltoztatása: kattintson a fekete keresztel jelölt zöld gombra ráközelítéshez, a vonallal jelölt zöld gombra távolításhoz, vagy a zöld nyilakra a szomszédos térképek eléréséhez.


METAR-TAF: